createdAt,value
2023-03-29T00:02:19.814Z,1.05
2023-03-29T00:04:47.307Z,0.50
2023-03-29T00:07:14.375Z,1.17
2023-03-29T00:09:42.656Z,0.77
2023-03-29T00:12:11.273Z,0.70
2023-03-29T00:14:38.287Z,1.33
2023-03-29T00:17:05.511Z,0.55
2023-03-29T00:19:35.884Z,0.80
2023-03-29T00:22:06.349Z,0.63
2023-03-29T00:27:00.430Z,1.30
2023-03-29T00:29:27.596Z,0.60
2023-03-29T00:31:56.117Z,0.77
2023-03-29T00:34:24.461Z,0.85
2023-03-29T00:36:53.148Z,0.75
2023-03-29T00:39:21.332Z,1.02
2023-03-29T00:41:49.816Z,1.05
2023-03-29T00:44:56.736Z,0.90
2023-03-29T00:47:45.643Z,1.20
2023-03-29T00:50:22.802Z,0.77
2023-03-29T00:52:56.813Z,0.80
2023-03-29T00:55:27.820Z,0.70
2023-03-29T00:57:58.002Z,0.85
2023-03-29T01:00:31.929Z,1.35
2023-03-29T01:03:00.380Z,0.65
2023-03-29T01:05:37.908Z,0.88
2023-03-29T01:08:25.759Z,1.45
2023-03-29T01:11:05.049Z,0.85
2023-03-29T01:13:41.075Z,0.95
2023-03-29T01:16:10.731Z,1.25
2023-03-29T01:18:38.532Z,1.10
2023-03-29T01:21:16.006Z,1.30
2023-03-29T01:24:07.207Z,0.80
2023-03-29T01:26:53.715Z,0.95
2023-03-29T01:29:45.862Z,1.10
2023-03-29T01:32:25.227Z,0.98
2023-03-29T01:35:00.697Z,1.67
2023-03-29T01:37:43.840Z,1.27
2023-03-29T01:40:11.342Z,1.02
2023-03-29T01:43:04.687Z,1.17
2023-03-29T01:45:46.907Z,1.08
2023-03-29T01:48:33.071Z,0.80
2023-03-29T01:51:15.195Z,1.00
2023-03-29T01:54:07.646Z,1.20
2023-03-29T01:56:41.858Z,0.90
2023-03-29T01:59:13.234Z,1.90
2023-03-29T02:01:49.343Z,1.10
2023-03-29T02:04:22.927Z,1.20
2023-03-29T02:06:54.394Z,3.35
2023-03-29T02:09:22.566Z,1.85
2023-03-29T02:11:51.346Z,0.80
2023-03-29T02:14:18.361Z,0.80
2023-03-29T02:16:46.418Z,2.38
2023-03-29T02:19:15.488Z,0.65
2023-03-29T02:21:53.540Z,1.30
2023-03-29T02:24:22.283Z,0.98
2023-03-29T02:26:50.047Z,1.00
2023-03-29T02:29:17.308Z,1.05
2023-03-29T02:32:08.189Z,0.85
2023-03-29T02:34:41.912Z,1.63
2023-03-29T02:37:13.616Z,1.85
2023-03-29T02:39:41.329Z,0.88
2023-03-29T02:42:09.455Z,0.98
2023-03-29T02:44:40.201Z,1.23
2023-03-29T02:47:17.078Z,1.08
2023-03-29T02:49:44.723Z,0.93
2023-03-29T02:52:17.053Z,1.75
2023-03-29T02:54:47.686Z,0.80
2023-03-29T02:57:14.839Z,0.90
2023-03-29T02:59:44.249Z,0.70
2023-03-29T03:02:13.804Z,1.90
2023-03-29T03:04:41.529Z,0.93
2023-03-29T03:07:08.917Z,0.65
2023-03-29T03:09:36.020Z,0.80
2023-03-29T03:12:03.109Z,1.38
2023-03-29T03:14:30.165Z,1.15
2023-03-29T03:16:58.011Z,0.73
2023-03-29T03:19:25.110Z,0.85
2023-03-29T03:21:52.181Z,0.90
2023-03-29T03:24:19.252Z,1.15
2023-03-29T03:26:46.475Z,0.82
2023-03-29T03:29:15.756Z,1.80
2023-03-29T03:31:43.132Z,1.20
2023-03-29T03:34:10.432Z,0.57
2023-03-29T03:36:37.942Z,1.33
2023-03-29T03:39:07.286Z,1.25
2023-03-29T03:41:35.840Z,0.77
2023-03-29T03:44:02.854Z,1.13
2023-03-29T03:46:29.935Z,1.00
2023-03-29T03:48:57.758Z,1.15
2023-03-29T03:51:24.953Z,0.70
2023-03-29T03:53:52.211Z,0.57
2023-03-29T03:56:20.572Z,0.63
2023-03-29T03:58:47.791Z,0.77
2023-03-29T04:01:14.905Z,1.33
2023-03-29T04:03:42.064Z,0.60
2023-03-29T04:06:09.909Z,0.90
2023-03-29T04:08:37.033Z,2.17
2023-03-29T04:11:04.744Z,0.73
2023-03-29T04:13:31.968Z,1.13
2023-03-29T04:16:01.416Z,0.85
2023-03-29T04:18:29.104Z,1.38
2023-03-29T04:20:56.279Z,1.25
2023-03-29T04:23:23.329Z,0.50
2023-03-29T04:25:53.942Z,1.40
2023-03-29T04:28:21.581Z,0.80
2023-03-29T04:30:49.153Z,0.80
2023-03-29T04:33:16.436Z,0.60
2023-03-29T04:35:43.817Z,1.20
2023-03-29T04:38:11.592Z,2.17
2023-03-29T04:40:38.720Z,1.45
2023-03-29T04:43:06.423Z,2.08
2023-03-29T04:45:33.541Z,1.38
2023-03-29T04:48:00.666Z,1.33
2023-03-29T04:50:28.548Z,2.45
2023-03-29T04:52:55.782Z,2.13
2023-03-29T04:55:23.008Z,2.17
2023-03-29T04:57:50.055Z,1.70
2023-03-29T05:00:17.545Z,2.63
2023-03-29T05:02:45.284Z,2.28
2023-03-29T05:05:13.483Z,2.40
2023-03-29T05:07:41.096Z,3.88
2023-03-29T05:10:09.415Z,2.38
2023-03-29T05:12:36.933Z,4.03
2023-03-29T05:15:08.350Z,2.78
2023-03-29T05:17:35.428Z,2.92
2023-03-29T05:20:09.462Z,3.55
2023-03-29T05:22:36.727Z,4.05
2023-03-29T05:25:04.409Z,6.10
2023-03-29T05:27:31.632Z,3.65
2023-03-29T05:29:58.716Z,10.10
2023-03-29T05:32:25.866Z,4.82
2023-03-29T05:34:53.086Z,7.32
2023-03-29T05:37:20.266Z,5.57
2023-03-29T05:39:49.911Z,5.07
2023-03-29T05:42:19.376Z,4.55
2023-03-29T05:44:46.625Z,5.07
2023-03-29T05:47:13.842Z,5.10
2023-03-29T05:49:41.042Z,6.53
2023-03-29T05:52:08.736Z,6.38
2023-03-29T05:54:35.931Z,6.32
2023-03-29T05:57:03.220Z,5.60
2023-03-29T05:59:30.372Z,8.35
2023-03-29T06:01:57.433Z,7.40
2023-03-29T06:04:25.477Z,6.82
2023-03-29T06:06:55.755Z,11.55
2023-03-29T06:09:26.126Z,10.90
2023-03-29T06:14:21.268Z,11.55
2023-03-29T06:16:48.334Z,7.55
2023-03-29T06:19:15.604Z,11.52
2023-03-29T06:21:42.718Z,9.80
2023-03-29T06:24:10.188Z,14.07
2023-03-29T06:26:38.205Z,11.00
2023-03-29T06:29:05.332Z,18.98
2023-03-29T06:31:32.506Z,11.18
2023-03-29T06:33:59.608Z,11.95
2023-03-29T06:36:26.749Z,9.52
2023-03-29T06:38:54.667Z,11.98
2023-03-29T06:41:21.766Z,9.48
2023-03-29T06:43:49.369Z,8.10
2023-03-29T06:46:17.103Z,11.45
2023-03-29T06:48:45.172Z,9.95
2023-03-29T06:51:13.050Z,8.23
2023-03-29T06:53:40.521Z,10.90
2023-03-29T06:56:09.512Z,8.20
2023-03-29T06:58:37.341Z,8.68
2023-03-29T07:01:05.140Z,9.07
2023-03-29T07:03:35.436Z,11.07
2023-03-29T07:06:09.703Z,8.73
2023-03-29T07:08:43.460Z,8.27
2023-03-29T07:11:13.240Z,8.95
2023-03-29T07:13:42.684Z,10.27
2023-03-29T07:16:12.911Z,12.65
2023-03-29T07:18:41.985Z,9.32
2023-03-29T07:21:10.805Z,10.45
2023-03-29T07:23:38.273Z,10.20
2023-03-29T07:26:08.266Z,8.45
2023-03-29T07:28:37.648Z,8.98
2023-03-29T07:31:07.097Z,8.15
2023-03-29T07:33:35.303Z,7.35
2023-03-29T07:36:03.571Z,6.82
2023-03-29T07:38:31.599Z,8.73
2023-03-29T07:40:59.372Z,7.55
2023-03-29T07:43:26.434Z,6.70
2023-03-29T07:45:55.451Z,7.00
2023-03-29T07:48:22.541Z,7.68
2023-03-29T07:50:49.542Z,5.85
2023-03-29T07:53:16.628Z,4.55
2023-03-29T07:55:47.812Z,6.15
2023-03-29T07:58:15.860Z,6.35
2023-03-29T08:00:46.297Z,4.47
2023-03-29T08:03:13.771Z,7.10
2023-03-29T08:05:42.183Z,5.32
2023-03-29T08:08:10.037Z,5.32
2023-03-29T08:10:40.207Z,3.58
2023-03-29T08:13:09.277Z,6.00
2023-03-29T08:15:39.225Z,6.13
2023-03-29T08:18:07.834Z,4.22
2023-03-29T08:20:35.149Z,4.53
2023-03-29T08:23:02.279Z,9.93
2023-03-29T08:25:29.611Z,4.47
2023-03-29T08:27:57.025Z,3.90
2023-03-29T08:30:25.921Z,4.25
2023-03-29T08:32:55.421Z,5.10
2023-03-29T08:35:22.945Z,4.03
2023-03-29T08:37:50.157Z,4.60
2023-03-29T08:40:21.643Z,3.38
2023-03-29T08:43:28.812Z,4.20
2023-03-29T08:46:34.526Z,5.50
2023-03-29T08:49:06.298Z,3.92
2023-03-29T08:51:42.681Z,3.95
2023-03-29T08:54:25.677Z,4.45
2023-03-29T08:56:57.111Z,4.13
2023-03-29T08:59:31.480Z,3.58
2023-03-29T09:02:02.346Z,4.20
2023-03-29T09:04:33.303Z,3.42
2023-03-29T09:07:02.315Z,3.65
2023-03-29T09:09:33.465Z,3.15
2023-03-29T09:12:36.497Z,4.40
2023-03-29T09:15:15.649Z,2.38
2023-03-29T09:18:14.022Z,4.40
2023-03-29T09:20:57.367Z,2.33
2023-03-29T09:24:01.392Z,4.25
2023-03-29T09:26:49.306Z,2.67
2023-03-29T09:29:37.900Z,3.33
2023-03-29T09:32:15.921Z,5.20
2023-03-29T09:34:54.485Z,3.67
2023-03-29T09:37:33.532Z,2.25
2023-03-29T09:40:05.090Z,2.03
2023-03-29T09:42:33.061Z,5.22
2023-03-29T09:45:08.613Z,2.08
2023-03-29T09:47:53.768Z,2.80
2023-03-29T09:50:38.016Z,2.45
2023-03-29T09:53:05.700Z,2.47
2023-03-29T09:55:36.498Z,2.35
2023-03-29T09:58:14.781Z,2.13
2023-03-29T10:00:42.020Z,2.55
2023-03-29T10:03:10.729Z,0.98
2023-03-29T10:05:38.752Z,1.55
2023-03-29T10:08:21.093Z,1.65
2023-03-29T10:10:48.605Z,1.80
2023-03-29T10:13:31.811Z,2.95
2023-03-29T10:16:09.394Z,1.15
2023-03-29T10:18:43.677Z,1.48
2023-03-29T10:21:15.790Z,3.13
2023-03-29T10:23:44.056Z,2.90
2023-03-29T10:26:29.719Z,2.85
2023-03-29T10:29:00.465Z,1.40
2023-03-29T10:31:33.251Z,1.45
2023-03-29T10:34:06.764Z,1.58
2023-03-29T10:36:34.782Z,1.58
2023-03-29T10:39:06.185Z,5.47
2023-03-29T10:41:35.272Z,2.90
2023-03-29T10:44:02.766Z,2.83
2023-03-29T10:46:41.797Z,5.13
2023-03-29T10:49:19.238Z,3.08
2023-03-29T10:51:48.190Z,2.03
2023-03-29T10:54:20.440Z,3.90
2023-03-29T10:57:03.908Z,6.03
2023-03-29T11:00:01.464Z,2.60
2023-03-29T11:03:08.935Z,2.75
2023-03-29T11:05:49.523Z,3.83
2023-03-29T11:08:57.995Z,2.97
2023-03-29T11:11:44.649Z,4.03
2023-03-29T11:14:30.385Z,2.88
2023-03-29T11:17:21.829Z,2.08
2023-03-29T11:20:16.640Z,3.35
2023-03-29T11:23:17.268Z,1.88
2023-03-29T11:26:05.213Z,1.95
2023-03-29T11:29:01.202Z,1.55
2023-03-29T11:31:52.641Z,8.50
2023-03-29T11:34:52.835Z,1.58
2023-03-29T11:40:24.124Z,3.03
2023-03-29T11:42:56.248Z,0.80
2023-03-29T11:45:40.060Z,0.98
2023-03-29T11:48:15.865Z,2.80
2023-03-29T11:51:16.319Z,1.20
2023-03-29T11:53:56.278Z,1.70
2023-03-29T11:56:30.546Z,2.90
2023-03-29T11:59:04.925Z,0.90
2023-03-29T12:01:40.594Z,1.48
2023-03-29T12:04:17.864Z,3.33
2023-03-29T12:06:58.103Z,4.60
2023-03-29T12:09:39.659Z,1.70
2023-03-29T12:12:15.334Z,2.17
2023-03-29T12:14:57.272Z,2.53
2023-03-29T12:17:34.363Z,1.73
2023-03-29T12:20:11.541Z,0.70
2023-03-29T12:22:39.273Z,3.83
2023-03-29T12:25:12.750Z,1.25
2023-03-29T12:28:03.539Z,4.13
2023-03-29T12:30:47.051Z,2.95
2023-03-29T12:33:44.049Z,4.30
2023-03-29T12:36:52.203Z,1.33
2023-03-29T12:39:21.074Z,1.13
2023-03-29T12:41:53.614Z,1.80
2023-03-29T12:44:24.819Z,1.85
2023-03-29T12:46:57.364Z,1.30
2023-03-29T12:49:34.362Z,2.45
2023-03-29T12:52:14.873Z,1.85
2023-03-29T12:54:52.596Z,0.77
2023-03-29T12:57:40.234Z,0.77
2023-03-29T13:00:27.524Z,1.30
2023-03-29T13:03:19.975Z,1.42
2023-03-29T13:05:48.342Z,1.85
2023-03-29T13:08:26.318Z,4.68
2023-03-29T13:10:55.556Z,1.23
2023-03-29T13:13:30.985Z,1.33
2023-03-29T13:16:17.593Z,3.17
2023-03-29T13:19:13.926Z,1.65
2023-03-29T13:22:16.867Z,1.88
2023-03-29T13:25:09.431Z,2.53
2023-03-29T13:27:52.643Z,1.02
2023-03-29T13:30:50.328Z,3.83
2023-03-29T13:33:38.484Z,1.02
2023-03-29T13:36:24.814Z,0.80
2023-03-29T13:38:54.529Z,1.08
2023-03-29T13:41:46.244Z,1.98
2023-03-29T13:44:38.966Z,0.98
2023-03-29T13:47:33.889Z,1.52
2023-03-29T13:50:06.084Z,1.27
2023-03-29T13:52:48.935Z,1.23
2023-03-29T13:55:33.587Z,1.13
2023-03-29T13:58:21.167Z,2.65
2023-03-29T14:00:55.795Z,1.70
2023-03-29T14:03:30.225Z,1.20
2023-03-29T14:06:00.930Z,0.57
2023-03-29T14:08:36.599Z,1.05
2023-03-29T14:11:07.153Z,2.85
2023-03-29T14:13:35.832Z,0.63
2023-03-29T14:16:08.907Z,0.68
2023-03-29T14:18:39.906Z,2.03
2023-03-29T14:21:08.463Z,1.20
2023-03-29T14:23:38.055Z,3.40
2023-03-29T14:26:21.001Z,1.30
2023-03-29T14:28:54.164Z,3.85
2023-03-29T14:31:34.295Z,1.42
2023-03-29T14:34:04.594Z,2.38
2023-03-29T14:36:33.746Z,2.83
2023-03-29T14:39:21.911Z,2.60
2023-03-29T14:41:55.538Z,5.93
2023-03-29T14:44:28.107Z,2.75
2023-03-29T14:46:56.408Z,4.47
2023-03-29T14:49:24.640Z,5.53
2023-03-29T14:51:53.101Z,3.25
2023-03-29T14:54:24.144Z,5.28
2023-03-29T14:56:51.870Z,4.35
2023-03-29T14:59:37.111Z,5.75
2023-03-29T15:02:05.335Z,5.63
2023-03-29T15:04:34.407Z,2.20
2023-03-29T15:07:04.318Z,6.10
2023-03-29T15:09:34.495Z,8.00
2023-03-29T15:14:34.046Z,5.72
2023-03-29T15:17:05.343Z,8.13
2023-03-29T15:19:33.284Z,5.55
2023-03-29T15:22:10.250Z,7.35
2023-03-29T15:24:43.552Z,9.18
2023-03-29T15:27:19.082Z,4.65
2023-03-29T15:29:48.132Z,7.20
2023-03-29T15:32:33.846Z,4.90
2023-03-29T15:35:03.838Z,6.85
2023-03-29T15:37:31.214Z,8.45
2023-03-29T15:39:58.463Z,9.00
2023-03-29T15:42:26.315Z,7.32
2023-03-29T15:44:55.357Z,8.95
2023-03-29T15:47:22.676Z,6.43
2023-03-29T15:49:49.759Z,4.65
2023-03-29T15:52:16.866Z,5.40
2023-03-29T15:54:44.260Z,9.90
2023-03-29T15:57:15.689Z,6.25
2023-03-29T15:59:43.939Z,5.65
2023-03-29T16:02:16.801Z,7.57
2023-03-29T16:04:43.964Z,8.05
2023-03-29T16:07:15.028Z,11.10
2023-03-29T16:09:42.833Z,7.47
2023-03-29T16:12:11.166Z,7.95
2023-03-29T16:14:39.084Z,7.20
2023-03-29T16:17:06.341Z,10.18
2023-03-29T16:19:33.968Z,6.18
2023-03-29T16:22:05.181Z,10.40
2023-03-29T16:24:33.698Z,7.53
2023-03-29T16:27:01.882Z,8.57
2023-03-29T16:29:29.686Z,6.88
2023-03-29T16:31:57.423Z,6.32
2023-03-29T16:34:24.591Z,6.25
2023-03-29T16:36:53.197Z,7.65
2023-03-29T16:39:20.367Z,11.27
2023-03-29T16:41:49.123Z,8.68
2023-03-29T16:44:20.036Z,12.27
2023-03-29T16:46:49.008Z,8.55
2023-03-29T16:49:18.320Z,8.02
2023-03-29T16:51:47.395Z,7.60
2023-03-29T16:54:15.443Z,9.57
2023-03-29T16:56:42.587Z,7.43
2023-03-29T16:59:09.821Z,6.25
2023-03-29T17:01:37.388Z,5.47
2023-03-29T17:04:05.085Z,5.60
2023-03-29T17:06:32.953Z,7.47
2023-03-29T17:09:00.817Z,7.18
2023-03-29T17:11:29.029Z,7.80
2023-03-29T17:13:56.369Z,6.47
2023-03-29T17:16:23.804Z,6.40
2023-03-29T17:18:52.679Z,6.95
2023-03-29T17:21:20.455Z,6.75
2023-03-29T17:23:47.608Z,6.63
2023-03-29T17:26:14.637Z,8.88
2023-03-29T17:28:43.610Z,5.65
2023-03-29T17:31:10.808Z,6.95
2023-03-29T17:33:38.010Z,9.30
2023-03-29T17:36:07.384Z,6.30
2023-03-29T17:38:34.823Z,7.35
2023-03-29T17:41:03.045Z,7.00
2023-03-29T17:43:30.688Z,7.60
2023-03-29T17:45:57.828Z,7.63
2023-03-29T17:48:25.080Z,11.02
2023-03-29T17:50:55.440Z,9.77
2023-03-29T17:55:49.430Z,7.45
2023-03-29T17:58:16.774Z,5.85
2023-03-29T18:00:44.073Z,7.07
2023-03-29T18:03:11.993Z,7.68
2023-03-29T18:05:41.746Z,4.43
2023-03-29T18:08:08.853Z,8.32
2023-03-29T18:10:36.997Z,8.35
2023-03-29T18:13:04.082Z,6.25
2023-03-29T18:15:31.375Z,6.25
2023-03-29T18:17:58.598Z,8.20
2023-03-29T18:20:25.984Z,6.35
2023-03-29T18:22:55.923Z,6.30
2023-03-29T18:25:24.254Z,4.68
2023-03-29T18:27:51.709Z,7.40
2023-03-29T18:30:18.874Z,6.55
2023-03-29T18:32:46.108Z,9.05
2023-03-29T18:35:13.208Z,4.97
2023-03-29T18:37:40.592Z,6.28
2023-03-29T18:40:08.573Z,5.45
2023-03-29T18:42:38.316Z,7.22
2023-03-29T18:45:06.047Z,5.95
2023-03-29T18:47:33.333Z,6.78
2023-03-29T18:50:00.522Z,10.00
2023-03-29T18:52:27.978Z,7.10
2023-03-29T18:54:56.233Z,4.90
2023-03-29T18:57:23.614Z,8.05
2023-03-29T18:59:50.718Z,5.97
2023-03-29T19:02:17.894Z,5.68
2023-03-29T19:04:45.102Z,6.35
2023-03-29T19:07:12.220Z,5.15
2023-03-29T19:09:39.434Z,5.88
2023-03-29T19:12:06.752Z,5.28
2023-03-29T19:14:33.842Z,5.28
2023-03-29T19:17:01.134Z,6.70
2023-03-29T19:19:28.205Z,7.70
2023-03-29T19:21:57.705Z,6.93
2023-03-29T19:24:27.108Z,6.15
2023-03-29T19:26:54.327Z,6.68
2023-03-29T19:29:21.774Z,7.70
2023-03-29T19:31:48.918Z,7.00
2023-03-29T19:34:19.700Z,6.55
2023-03-29T19:36:47.060Z,6.78
2023-03-29T19:39:14.327Z,7.85
2023-03-29T19:41:41.934Z,7.22
2023-03-29T19:44:09.151Z,7.70
2023-03-29T19:46:36.319Z,7.90
2023-03-29T19:49:05.144Z,6.95
2023-03-29T19:51:32.829Z,8.87
2023-03-29T19:54:00.409Z,8.43
2023-03-29T19:56:28.070Z,7.78
2023-03-29T19:58:55.777Z,8.80
2023-03-29T20:01:23.052Z,8.27
2023-03-29T20:03:50.657Z,8.00
2023-03-29T20:06:19.019Z,8.82
2023-03-29T20:08:46.270Z,7.72
2023-03-29T20:11:14.804Z,8.07
2023-03-29T20:13:43.358Z,9.45
2023-03-29T20:16:13.332Z,8.32
2023-03-29T20:18:40.428Z,7.50
2023-03-29T20:21:08.605Z,7.65
2023-03-29T20:23:36.595Z,7.80
2023-03-29T20:26:03.704Z,7.60
2023-03-29T20:28:31.602Z,7.70
2023-03-29T20:31:04.025Z,9.32
2023-03-29T20:33:31.505Z,8.15
2023-03-29T20:35:58.653Z,8.30
2023-03-29T20:38:26.048Z,8.98
2023-03-29T20:40:53.793Z,8.70
2023-03-29T20:43:20.883Z,8.82
2023-03-29T20:45:53.990Z,8.63
2023-03-29T20:48:24.394Z,9.25
2023-03-29T20:50:51.650Z,9.85
2023-03-29T20:53:20.592Z,9.02
2023-03-29T20:55:48.132Z,9.70
2023-03-29T20:58:15.991Z,8.85
2023-03-29T21:00:43.934Z,9.32
2023-03-29T21:03:11.464Z,7.63
2023-03-29T21:05:39.080Z,8.15
2023-03-29T21:08:06.337Z,7.80
2023-03-29T21:10:33.527Z,8.50
2023-03-29T21:13:02.629Z,6.65
2023-03-29T21:15:31.203Z,8.47
2023-03-29T21:17:58.624Z,8.23
2023-03-29T21:20:27.687Z,9.02
2023-03-29T21:22:54.833Z,7.53
2023-03-29T21:25:22.015Z,9.35
2023-03-29T21:27:49.308Z,6.30
2023-03-29T21:30:16.555Z,8.00
2023-03-29T21:32:43.723Z,7.65
2023-03-29T21:35:11.152Z,8.13
2023-03-29T21:37:38.229Z,8.38
2023-03-29T21:40:07.147Z,6.63
2023-03-29T21:42:34.972Z,7.50
2023-03-29T21:45:02.168Z,7.80
2023-03-29T21:47:29.304Z,7.68
2023-03-29T21:49:56.497Z,6.75
2023-03-29T21:52:23.565Z,7.72
2023-03-29T21:54:50.909Z,7.18
2023-03-29T21:57:18.204Z,7.25
2023-03-29T21:59:45.546Z,7.03
2023-03-29T22:02:12.671Z,5.72
2023-03-29T22:04:39.743Z,7.97
2023-03-29T22:07:06.848Z,6.72
2023-03-29T22:09:35.299Z,6.75
2023-03-29T22:12:03.547Z,7.32
2023-03-29T22:14:34.886Z,7.97
2023-03-29T22:17:04.555Z,6.47
2023-03-29T22:19:31.889Z,8.10
2023-03-29T22:22:01.567Z,7.57
2023-03-29T22:24:29.369Z,7.10
2023-03-29T22:26:56.564Z,6.70
2023-03-29T22:29:23.771Z,5.82
2023-03-29T22:31:50.963Z,5.68
2023-03-29T22:34:18.068Z,7.35
2023-03-29T22:36:45.145Z,6.65
2023-03-29T22:39:13.497Z,6.25
2023-03-29T22:41:41.294Z,6.20
2023-03-29T22:44:08.944Z,5.88
2023-03-29T22:46:36.274Z,6.72
2023-03-29T22:49:03.558Z,5.50
2023-03-29T22:51:30.679Z,6.95
2023-03-29T22:53:57.817Z,6.97
2023-03-29T22:56:25.030Z,6.13
2023-03-29T22:58:52.118Z,6.75
2023-03-29T23:01:19.279Z,6.20
2023-03-29T23:03:46.396Z,5.60
2023-03-29T23:06:13.483Z,4.82
2023-03-29T23:08:40.578Z,6.47
2023-03-29T23:11:07.791Z,5.35
2023-03-29T23:13:35.400Z,5.63
2023-03-29T23:16:03.838Z,6.18
2023-03-29T23:18:34.824Z,6.05
2023-03-29T23:21:05.159Z,4.88
2023-03-29T23:23:32.747Z,5.30
2023-03-29T23:25:59.893Z,5.40
2023-03-29T23:28:30.676Z,4.65
2023-03-29T23:31:03.662Z,5.65
2023-03-29T23:33:33.761Z,6.32
2023-03-29T23:36:03.845Z,5.22
2023-03-29T23:38:32.169Z,4.65
2023-03-29T23:41:02.283Z,5.00
2023-03-29T23:46:02.731Z,5.55
2023-03-29T23:48:30.321Z,5.88
2023-03-29T23:50:57.432Z,4.22
2023-03-29T23:53:28.962Z,6.00
2023-03-29T23:56:01.660Z,4.88
2023-03-29T23:58:29.940Z,5.13
